createdAt,value
2022-12-26T00:01:17.913Z,100399.28
2022-12-26T00:03:47.700Z,100413.53
2022-12-26T00:06:24.510Z,100412.94
2022-12-26T00:08:58.039Z,100414.63
2022-12-26T00:14:22.283Z,100432.94
2022-12-26T00:25:35.653Z,100443.88
2022-12-26T00:28:21.864Z,100451.81
2022-12-26T00:30:59.785Z,100459.38
2022-12-26T00:33:28.494Z,100475.06
2022-12-26T00:36:02.796Z,100478.00
2022-12-26T00:38:32.064Z,100478.41
2022-12-26T00:41:18.298Z,100460.63
2022-12-26T00:43:48.455Z,100465.91
2022-12-26T00:46:23.254Z,100473.53
2022-12-26T00:48:51.999Z,100473.94
2022-12-26T00:51:21.375Z,100470.97
2022-12-26T00:53:52.829Z,100480.25
2022-12-26T00:56:22.559Z,100485.19
2022-12-26T00:58:50.691Z,100493.75
2022-12-26T01:01:21.777Z,100501.38
2022-12-26T01:03:52.983Z,100517.94
2022-12-26T01:06:21.399Z,100526.97
2022-12-26T01:08:49.841Z,100527.34
2022-12-26T01:11:39.556Z,100527.59
2022-12-26T01:14:12.022Z,100536.84
2022-12-26T01:16:42.724Z,100561.06
2022-12-26T01:19:12.345Z,100561.69
2022-12-26T01:21:41.015Z,100546.88
2022-12-26T01:24:09.577Z,100543.63
2022-12-26T01:26:38.062Z,100562.22
2022-12-26T01:29:06.486Z,100533.06
2022-12-26T01:31:39.617Z,100559.53
2022-12-26T01:34:09.104Z,100558.44
2022-12-26T01:36:37.179Z,100571.81
2022-12-26T01:39:12.478Z,100561.22
2022-12-26T01:41:40.983Z,100568.25
2022-12-26T01:44:48.162Z,100557.00
2022-12-26T01:47:23.224Z,100588.31
2022-12-26T01:49:56.630Z,100586.63
2022-12-26T01:52:35.710Z,100600.47
2022-12-26T01:55:07.158Z,100594.41
2022-12-26T01:57:56.050Z,100602.16
2022-12-26T02:01:04.719Z,100610.31
2022-12-26T02:03:52.216Z,100614.56
2022-12-26T02:06:21.927Z,100614.56
2022-12-26T02:14:56.984Z,100642.59
2022-12-26T02:17:29.932Z,100654.84
2022-12-26T02:49:58.395Z,100749.59
2022-12-26T03:37:20.795Z,100859.28
2022-12-26T04:21:04.206Z,100916.78
2022-12-26T04:24:20.945Z,100918.09
2022-12-26T04:41:35.224Z,100939.47
2022-12-26T04:52:13.200Z,100977.13
2022-12-26T04:54:54.656Z,100968.34
2022-12-26T05:06:48.759Z,100967.38
2022-12-26T05:09:36.292Z,100968.00
2022-12-26T05:12:20.039Z,100983.91
2022-12-26T05:14:59.761Z,100983.06
2022-12-26T05:17:46.295Z,100981.34
2022-12-26T05:20:51.390Z,100976.13
2022-12-26T05:28:53.232Z,100995.28
2022-12-26T05:31:22.213Z,100995.50
2022-12-26T05:37:04.633Z,101009.84
2022-12-26T05:39:32.630Z,101003.63
2022-12-26T05:42:00.693Z,101009.72
2022-12-26T05:44:30.275Z,101004.50
2022-12-26T05:46:59.861Z,101000.19
2022-12-26T05:49:28.575Z,101012.50
2022-12-26T05:51:56.756Z,101021.38
2022-12-26T05:54:24.910Z,101017.91
2022-12-26T05:56:54.627Z,101020.28
2022-12-26T05:59:22.709Z,101027.34
2022-12-26T06:01:52.760Z,101030.94
2022-12-26T06:04:22.529Z,101034.63
2022-12-26T06:06:51.312Z,101034.97
2022-12-26T06:09:19.876Z,101029.75
2022-12-26T06:11:49.150Z,101030.84
2022-12-26T06:14:18.069Z,101041.53
2022-12-26T06:16:46.562Z,101030.22
2022-12-26T06:19:16.381Z,101043.66
2022-12-26T06:21:44.963Z,101054.44
2022-12-26T06:24:14.067Z,101050.91
2022-12-26T06:26:42.305Z,101059.59
2022-12-26T06:29:11.132Z,101071.13
2022-12-26T06:31:39.324Z,101078.16
2022-12-26T06:34:10.042Z,101067.00
2022-12-26T06:36:39.653Z,101075.66
2022-12-26T06:39:10.920Z,101086.66
2022-12-26T06:41:41.068Z,101075.00
2022-12-26T06:44:16.245Z,101085.13
2022-12-26T06:46:46.988Z,101089.16
2022-12-26T06:49:15.331Z,101102.03
2022-12-26T06:54:31.330Z,101107.91
2022-12-26T06:57:00.887Z,101112.50
2022-12-26T06:59:29.149Z,101127.78
2022-12-26T07:01:58.202Z,101108.91
2022-12-26T07:04:27.283Z,101101.34
2022-12-26T07:06:57.239Z,101104.59
2022-12-26T07:09:31.456Z,101105.28
2022-12-26T07:12:01.693Z,101115.19
2022-12-26T07:14:30.467Z,101115.66
2022-12-26T07:17:00.112Z,101116.81
2022-12-26T07:19:28.343Z,101116.81
2022-12-26T07:21:57.968Z,101122.25
2022-12-26T07:24:26.148Z,101132.81
2022-12-26T07:26:54.485Z,101137.09
2022-12-26T07:29:23.277Z,101140.31
2022-12-26T07:31:51.345Z,101148.00
2022-12-26T07:34:19.638Z,101141.44
2022-12-26T07:36:47.835Z,101148.28
2022-12-26T07:39:17.892Z,101152.56
2022-12-26T07:42:01.212Z,101159.41
2022-12-26T07:44:39.232Z,101214.19
2022-12-26T07:47:11.742Z,101213.13
2022-12-26T07:49:39.860Z,101224.91
2022-12-26T07:52:07.918Z,101211.84
2022-12-26T07:54:37.341Z,101184.75
2022-12-26T07:57:38.246Z,101196.88
2022-12-26T07:59:53.931Z,101217.03
2022-12-26T08:02:22.428Z,101216.03
2022-12-26T08:04:50.692Z,101218.56
2022-12-26T08:07:19.007Z,101226.09
2022-12-26T08:09:52.320Z,101216.69
2022-12-26T08:12:27.771Z,101221.25
2022-12-26T08:14:56.965Z,101224.13
2022-12-26T08:17:32.608Z,101232.13
2022-12-26T08:20:14.728Z,101228.41
2022-12-26T08:22:43.154Z,101237.69
2022-12-26T08:25:22.200Z,101241.69
2022-12-26T08:27:50.844Z,101254.41
2022-12-26T09:15:13.980Z,101299.59
2022-12-26T09:17:42.150Z,101300.28
2022-12-26T09:20:12.205Z,101328.69
2022-12-26T09:22:52.400Z,101333.53
2022-12-26T09:25:23.497Z,101323.38
2022-12-26T09:27:58.816Z,101342.84
2022-12-26T09:30:29.228Z,101348.06
2022-12-26T09:32:58.387Z,101339.19
2022-12-26T09:35:26.636Z,101343.91
2022-12-26T09:37:54.865Z,101352.44
2022-12-26T09:40:28.267Z,101352.09
2022-12-26T09:43:11.329Z,101356.41
2022-12-26T09:45:51.691Z,101375.75
2022-12-26T09:48:30.489Z,101365.78
2022-12-26T09:50:59.165Z,101369.78
2022-12-26T09:53:34.796Z,101377.44
2022-12-26T09:56:13.956Z,101381.28
2022-12-26T09:58:56.546Z,101385.97
2022-12-26T10:01:30.183Z,101387.16
2022-12-26T10:04:00.984Z,101389.38
2022-12-26T10:06:36.355Z,101390.44
2022-12-26T10:09:42.662Z,101394.94
2022-12-26T10:12:25.877Z,101395.31
2022-12-26T10:15:00.856Z,101391.13
2022-12-26T10:17:39.020Z,101389.84
2022-12-26T10:20:21.132Z,101401.19
2022-12-26T10:23:33.996Z,101397.84
2022-12-26T10:26:13.966Z,101405.28
2022-12-26T10:28:47.294Z,101412.25
2022-12-26T10:31:24.218Z,101428.38
2022-12-26T10:34:00.328Z,101434.56
2022-12-26T10:36:34.721Z,101436.03
2022-12-26T10:39:09.087Z,101438.13
2022-12-26T10:41:43.181Z,101444.16
2022-12-26T10:44:13.315Z,101444.09
2022-12-26T10:47:00.534Z,101430.66
2022-12-26T10:49:30.652Z,101439.13
2022-12-26T10:52:02.264Z,101443.06
2022-12-26T10:54:31.538Z,101451.81
2022-12-26T10:57:02.006Z,101439.84
2022-12-26T10:59:40.725Z,101442.00
2022-12-26T11:02:26.263Z,101449.25
2022-12-26T11:05:21.802Z,101446.06
2022-12-26T11:08:06.713Z,101445.28
2022-12-26T11:10:35.605Z,101445.03
2022-12-26T11:13:07.792Z,101439.53
2022-12-26T11:15:42.030Z,101453.44
2022-12-26T11:18:21.147Z,101453.00
2022-12-26T11:21:06.752Z,101452.84
2022-12-26T11:24:04.140Z,101459.88
2022-12-26T11:26:41.951Z,101465.50
2022-12-26T11:29:15.900Z,101467.19
2022-12-26T11:31:52.612Z,101468.16
2022-12-26T11:34:28.460Z,101455.84
2022-12-26T11:37:03.643Z,101465.91
2022-12-26T11:39:58.007Z,101472.03
2022-12-26T11:42:27.919Z,101466.69
2022-12-26T11:44:58.600Z,101473.22
2022-12-26T11:47:29.595Z,101461.66
2022-12-26T11:50:07.353Z,101464.78
2022-12-26T11:52:39.782Z,101459.44
2022-12-26T11:55:33.568Z,101467.88
2022-12-26T11:58:06.697Z,101459.38
2022-12-26T12:00:37.374Z,101469.53
2022-12-26T12:03:12.761Z,101470.25
2022-12-26T12:05:53.987Z,101462.09
2022-12-26T12:08:39.128Z,101469.19
2022-12-26T12:11:24.959Z,101464.34
2022-12-26T12:14:07.508Z,101453.69
2022-12-26T12:17:03.408Z,101466.25
2022-12-26T12:19:48.346Z,101463.06
2022-12-26T12:22:46.228Z,101460.53
2022-12-26T12:25:52.173Z,101470.72
2022-12-26T12:28:43.847Z,101509.13
2022-12-26T12:31:20.526Z,101551.19
2022-12-26T12:33:55.721Z,101552.44
2022-12-26T12:36:30.575Z,101497.38
2022-12-26T12:39:18.981Z,101500.28
2022-12-26T12:42:18.115Z,101487.34
2022-12-26T12:45:07.471Z,101485.63
2022-12-26T12:47:47.865Z,101479.84
2022-12-26T12:50:27.165Z,101468.34
2022-12-26T12:53:04.255Z,101469.66
2022-12-26T12:55:53.459Z,101471.84
2022-12-26T12:58:31.461Z,101468.03
2022-12-26T13:01:03.390Z,101458.13
2022-12-26T13:03:36.629Z,101462.78
2022-12-26T13:06:10.757Z,101461.38
2022-12-26T13:08:43.070Z,101451.72
2022-12-26T13:11:26.360Z,101458.00
2022-12-26T13:14:03.028Z,101459.00
2022-12-26T13:22:53.972Z,101456.25
2022-12-26T13:25:25.982Z,101453.41
2022-12-26T13:31:05.898Z,101456.53
2022-12-26T13:51:53.239Z,101521.94
2022-12-26T13:54:24.269Z,101498.13
2022-12-26T14:00:17.832Z,101507.78
2022-12-26T14:05:36.582Z,101499.63
2022-12-26T14:08:16.680Z,101510.00
2022-12-26T14:10:57.310Z,101513.19
2022-12-26T14:25:08.164Z,101536.19
2022-12-26T14:27:57.819Z,101530.31
2022-12-26T14:30:32.991Z,101533.81
2022-12-26T14:33:17.706Z,101537.78
2022-12-26T14:35:58.390Z,101546.94
2022-12-26T14:38:40.684Z,101547.25
2022-12-26T14:41:36.383Z,101532.41
2022-12-26T14:44:17.115Z,101549.09
2022-12-26T14:47:14.815Z,101536.66
2022-12-26T14:49:44.451Z,101579.63
2022-12-26T14:52:41.701Z,101533.81
2022-12-26T14:55:46.862Z,101540.44
2022-12-26T14:58:38.404Z,101551.59
2022-12-26T15:01:46.511Z,101563.47
2022-12-26T15:04:52.098Z,101554.13
2022-12-26T15:08:07.988Z,101554.81
2022-12-26T15:11:00.854Z,101557.50
2022-12-26T15:14:02.600Z,101562.59
2022-12-26T15:16:46.837Z,101559.41
2022-12-26T15:19:57.846Z,101566.47
2022-12-26T15:23:03.746Z,101567.47
2022-12-26T15:26:07.316Z,101564.84
2022-12-26T15:29:12.348Z,101569.72
2022-12-26T15:31:55.969Z,101579.06
2022-12-26T15:34:59.681Z,101575.59
2022-12-26T15:37:46.976Z,101613.06
2022-12-26T15:40:22.336Z,101587.00
2022-12-26T15:43:22.172Z,101583.84
2022-12-26T15:46:00.229Z,101581.75
2022-12-26T15:48:54.875Z,101590.47
2022-12-26T15:51:44.827Z,101602.16
2022-12-26T15:54:27.843Z,101600.28
2022-12-26T15:57:16.175Z,101595.47
2022-12-26T16:00:13.076Z,101613.47
2022-12-26T16:02:47.534Z,101611.25
2022-12-26T16:05:34.751Z,101606.75
2022-12-26T16:08:15.549Z,101620.78
2022-12-26T16:10:46.583Z,101617.66
2022-12-26T16:13:23.224Z,101617.22
2022-12-26T16:15:54.599Z,101610.69
2022-12-26T16:18:27.413Z,101609.84
2022-12-26T16:21:17.016Z,101608.22
2022-12-26T16:23:57.346Z,101616.34
2022-12-26T16:26:37.515Z,101617.88
2022-12-26T16:29:07.153Z,101628.78
2022-12-26T16:31:35.521Z,101622.88
2022-12-26T16:34:03.743Z,101626.31
2022-12-26T16:36:35.806Z,101643.69
2022-12-26T16:39:14.443Z,101653.00
2022-12-26T16:42:00.940Z,101627.69
2022-12-26T16:44:33.804Z,101636.25
2022-12-26T16:47:06.033Z,101633.13
2022-12-26T16:53:14.040Z,101717.72
2022-12-26T16:55:45.420Z,101701.69
2022-12-26T16:58:22.046Z,101665.09
2022-12-26T17:01:03.427Z,101652.84
2022-12-26T17:03:39.545Z,101656.09
2022-12-26T17:08:50.288Z,101650.81
2022-12-26T17:11:19.887Z,101642.94
2022-12-26T17:13:55.340Z,101651.94
2022-12-26T17:16:46.119Z,101651.09
2022-12-26T17:22:40.818Z,101646.34
2022-12-26T17:25:45.612Z,101641.59
2022-12-26T17:28:44.272Z,101639.47
2022-12-26T17:31:26.280Z,101640.78
2022-12-26T17:33:57.901Z,101653.69
2022-12-26T17:40:02.625Z,101659.38
2022-12-26T17:42:51.424Z,101650.03
2022-12-26T17:45:27.797Z,101652.88
2022-12-26T17:48:03.563Z,101653.88
2022-12-26T17:50:38.389Z,101657.69
2022-12-26T17:53:17.426Z,101646.91
2022-12-26T17:56:14.518Z,101637.94
2022-12-26T18:04:33.908Z,101652.63
2022-12-26T18:09:57.244Z,101663.38
2022-12-26T18:12:28.585Z,101674.31
2022-12-26T18:15:30.022Z,101686.88
2022-12-26T18:21:06.934Z,101676.38
2022-12-26T18:23:35.390Z,101665.09
2022-12-26T18:26:09.084Z,101677.19
2022-12-26T18:34:22.354Z,101692.06
2022-12-26T18:39:44.617Z,101693.38
2022-12-26T18:42:54.000Z,101685.91
2022-12-26T18:45:25.358Z,101697.34
2022-12-26T18:48:06.612Z,101695.13
2022-12-26T18:53:39.914Z,101693.97
2022-12-26T18:56:14.811Z,101716.22
2022-12-26T18:58:55.770Z,101721.66
2022-12-26T19:13:29.140Z,101716.31
2022-12-26T19:16:02.215Z,101710.97
2022-12-26T19:18:40.540Z,101717.03
2022-12-26T19:27:54.256Z,101733.28
2022-12-26T19:30:24.077Z,101741.13
2022-12-26T19:32:53.919Z,101764.22
2022-12-26T19:35:22.136Z,101754.09
2022-12-26T19:38:05.665Z,101744.47
2022-12-26T19:40:35.694Z,101736.53
2022-12-26T19:43:06.351Z,101744.00
2022-12-26T19:45:35.289Z,101748.28
2022-12-26T19:48:07.244Z,101754.69
2022-12-26T19:50:36.912Z,101749.34
2022-12-26T19:53:27.924Z,101747.56
2022-12-26T19:55:57.881Z,101745.72
2022-12-26T19:58:33.134Z,101754.63
2022-12-26T20:01:13.785Z,101746.47
2022-12-26T20:03:59.907Z,101749.69
2022-12-26T20:07:31.307Z,101753.78
2022-12-26T20:10:01.742Z,101757.84
2022-12-26T20:12:35.006Z,101777.97
2022-12-26T20:15:03.253Z,101760.56
2022-12-26T20:17:44.813Z,101762.06
2022-12-26T20:20:16.674Z,101765.22
2022-12-26T20:22:52.689Z,101759.53
2022-12-26T20:25:25.350Z,101756.19
2022-12-26T20:28:16.731Z,101761.91
2022-12-26T20:36:51.206Z,101774.91
2022-12-26T20:42:17.138Z,101767.63
2022-12-26T20:44:45.770Z,101770.59
2022-12-26T20:47:14.388Z,101775.34
2022-12-26T20:49:42.686Z,101788.78
2022-12-26T20:52:12.615Z,101789.16
2022-12-26T20:54:40.935Z,101789.22
2022-12-26T20:57:09.511Z,101794.84
2022-12-26T20:59:38.108Z,101794.97
2022-12-26T21:02:08.525Z,101801.72
2022-12-26T21:04:36.808Z,101801.97
2022-12-26T21:09:51.408Z,101801.59
2022-12-26T21:14:55.584Z,101804.13
2022-12-26T21:26:03.706Z,101797.16
2022-12-26T21:28:31.999Z,101809.09
2022-12-26T21:39:51.499Z,101806.84
2022-12-26T21:42:21.489Z,101819.63
2022-12-26T21:44:49.836Z,101801.69
2022-12-26T21:47:18.056Z,101818.28
2022-12-26T22:29:48.036Z,101804.47
2022-12-26T22:32:19.435Z,101820.78
2022-12-26T22:37:36.288Z,101818.28
2022-12-26T22:40:04.656Z,101816.00
2022-12-26T23:51:01.937Z,101872.47
2022-12-26T23:56:21.467Z,101854.78
2022-12-26T23:58:51.810Z,101860.41
